Time;durP1;ratioP1;P1;durP2;ratioP2;P2;SDS_P1;SDS_P2;PMS_P1;PMS_P2;Temp;Humidity;BMP_temperature;BMP_pressure;BME280_temperature;BME280_humidity;BME280_pressure;Samples;Min_cycle;Max_cycle;Signal;HPM_P1;HPM_P2
2021/05/09 00:01:46;;;;;;;5.40;5.00;;;;;;;11.36;67.14;100451.47;5118418;28;20540;-66
2021/05/09 00:04:11;;;;;;;6.10;5.60;;;;;;;11.25;67.49;100466.25;5118566;28;20164;-66
2021/05/09 00:06:37;;;;;;;5.53;5.10;;;;;;;11.50;66.26;100453.25;5118459;28;20549;-65
2021/05/09 00:09:03;;;;;;;6.00;5.50;;;;;;;11.52;65.90;100459.34;5118474;28;20167;-66
2021/05/09 00:11:28;;;;;;;5.87;5.37;;;;;;;11.72;64.67;100447.19;5118666;28;20168;-65
2021/05/09 00:13:53;;;;;;;5.90;5.40;;;;;;;11.22;66.83;100448.00;5118301;28;20513;-66
2021/05/09 00:16:19;;;;;;;9.20;5.90;;;;;;;11.40;66.03;100448.00;5122645;28;20175;-66
2021/05/09 00:18:44;;;;;;;6.10;5.50;;;;;;;11.14;66.41;100445.34;5123335;28;20433;-65
2021/05/09 00:21:10;;;;;;;6.17;5.60;;;;;;;11.35;66.23;100446.25;5122714;28;20179;-66
2021/05/09 00:23:35;;;;;;;6.10;5.53;;;;;;;11.33;66.57;100437.56;5122774;28;20188;-66
2021/05/09 00:26:00;;;;;;;7.93;5.43;;;;;;;11.57;65.30;100441.97;5122520;28;20246;-65
2021/05/09 00:28:26;;;;;;;5.80;5.30;;;;;;;11.69;64.79;100438.47;5122641;28;20549;-66
2021/05/09 00:30:51;;;;;;;6.03;5.50;;;;;;;11.48;65.72;100427.16;5123014;28;20187;-66
2021/05/09 00:33:17;;;;;;;5.80;5.20;;;;;;;11.82;64.73;100421.06;5122637;28;20214;-65
2021/05/09 00:35:42;;;;;;;5.80;5.30;;;;;;;11.71;64.82;100414.09;5122448;28;20176;-66
2021/05/09 00:38:07;;;;;;;5.73;5.30;;;;;;;11.86;64.54;100417.56;5122942;28;20257;-66
2021/05/09 00:40:33;;;;;;;5.70;5.27;;;;;;;11.83;64.87;100410.63;5122251;27;20163;-65
2021/05/09 00:42:58;;;;;;;5.50;5.10;;;;;;;11.96;63.93;100415.00;5122316;28;20190;-65
2021/05/09 00:45:23;;;;;;;5.97;5.37;;;;;;;11.91;64.16;100406.25;5123071;28;20482;-65
2021/05/09 00:47:49;;;;;;;6.33;5.83;;;;;;;11.72;64.68;100407.16;5122222;28;20182;-66
2021/05/09 00:50:15;;;;;;;5.80;5.30;;;;;;;11.85;64.61;100405.38;5122075;28;20167;-65
2021/05/09 00:52:43;;;;;;;5.97;5.37;;;;;;;12.10;63.83;100401.03;5122429;28;20811;-66
2021/05/09 00:55:09;;;;;;;5.93;5.43;;;;;;;11.61;64.44;100391.50;5122323;28;20557;-66
2021/05/09 00:57:36;;;;;;;6.10;5.57;;;;;;;11.86;64.10;100396.69;5122121;28;20409;-66
2021/05/09 01:00:05;;;;;;;6.03;5.47;;;;;;;12.01;63.97;100394.06;5122648;28;20387;-66
2021/05/09 01:02:30;;;;;;;5.90;5.40;;;;;;;12.06;63.81;100394.06;5121773;28;20383;-65
2021/05/09 01:04:56;;;;;;;6.60;6.00;;;;;;;11.38;65.93;100394.94;5121355;28;20839;-64
2021/05/09 01:07:22;;;;;;;5.80;5.30;;;;;;;11.87;64.15;100391.44;5122203;28;20156;-65
2021/05/09 01:09:47;;;;;;;6.07;5.30;;;;;;;12.25;63.69;100387.91;5121842;28;20441;-65
2021/05/09 01:12:14;;;;;;;6.00;5.20;;;;;;;12.18;63.87;100393.16;5121799;28;20391;-64
2021/05/09 01:14:40;;;;;;;5.97;5.47;;;;;;;11.90;64.47;100393.19;5121942;28;20252;-66
2021/05/09 01:17:06;;;;;;;5.90;5.30;;;;;;;12.06;64.12;100387.09;5121637;28;20457;-66
2021/05/09 01:19:31;;;;;;;5.87;5.37;;;;;;;11.86;64.07;100392.31;5121691;28;20394;-65
2021/05/09 01:21:57;;;;;;;5.80;5.30;;;;;;;11.87;64.52;100394.06;5121868;28;20481;-65
2021/05/09 01:24:22;;;;;;;6.33;5.83;;;;;;;11.82;64.66;100392.34;5121366;28;20241;-65
2021/05/09 01:26:48;;;;;;;6.43;5.83;;;;;;;12.51;62.59;100386.09;5121275;28;20164;-65
2021/05/09 01:29:13;;;;;;;6.20;5.60;;;;;;;12.25;62.52;100393.13;5122082;28;20172;-65
2021/05/09 01:31:38;;;;;;;5.97;5.47;;;;;;;12.22;62.76;100389.69;5121302;28;20195;-65
2021/05/09 01:34:04;;;;;;;6.33;5.23;;;;;;;12.52;61.86;100393.06;5121329;28;20278;-65
2021/05/09 01:36:29;;;;;;;5.63;5.23;;;;;;;12.34;62.69;100388.75;5121905;28;20547;-65
2021/05/09 01:38:55;;;;;;;5.70;5.20;;;;;;;12.37;62.60;100386.16;5121272;28;20176;-66
2021/05/09 01:41:21;;;;;;;5.50;5.03;;;;;;;12.35;62.08;100383.50;5121178;28;20533;-65
2021/05/09 01:43:47;;;;;;;6.33;5.80;;;;;;;11.95;63.67;100375.81;5120847;28;20532;-66
2021/05/09 01:46:12;;;;;;;5.70;5.20;;;;;;;12.41;62.27;100383.50;5121268;28;20395;-66
2021/05/09 01:48:37;;;;;;;5.27;4.87;;;;;;;12.74;61.41;100384.22;5121177;28;20185;-65
2021/05/09 01:51:03;;;;;;;5.73;5.23;;;;;;;12.44;61.93;100375.66;5121364;28;20217;-65
2021/05/09 01:53:28;;;;;;;5.90;5.40;;;;;;;13.00;60.91;100369.28;5120972;28;20204;-65
2021/05/09 01:55:54;;;;;;;5.90;5.30;;;;;;;13.10;60.03;100377.06;5120904;28;20440;-66
2021/05/09 01:58:19;;;;;;;6.80;5.70;;;;;;;12.78;60.52;100379.84;5121438;27;20241;-66
2021/05/09 02:00:45;;;;;;;6.70;5.70;;;;;;;12.88;60.93;100372.81;5120815;27;20182;-65
2021/05/09 02:03:11;;;;;;;7.30;5.33;;;;;;;12.59;61.41;100373.84;5120883;28;20428;-66
2021/05/09 02:05:36;;;;;;;5.33;4.93;;;;;;;12.99;60.48;100373.66;5121495;28;20233;-66
2021/05/09 02:08:02;;;;;;;5.87;5.37;;;;;;;13.06;60.62;100372.72;5120808;28;20417;-65
2021/05/09 02:10:27;;;;;;;5.87;5.23;;;;;;;12.60;60.97;100371.22;5120388;28;20232;-65
2021/05/09 02:12:52;;;;;;;5.53;5.10;;;;;;;12.75;61.47;100375.50;5121160;28;20243;-65
2021/05/09 02:15:18;;;;;;;5.80;5.20;;;;;;;12.38;62.07;100372.19;5119841;28;20171;-66
2021/05/09 02:17:43;;;;;;;6.70;6.00;;;;;;;12.92;60.92;100371.94;5120670;28;20190;-65
2021/05/09 02:20:09;;;;;;;5.93;5.30;;;;;;;12.68;61.66;100363.34;5121104;28;20174;-66
2021/05/09 02:22:35;;;;;;;6.23;5.63;;;;;;;13.18;60.23;100363.03;5120265;28;20261;-65
2021/05/09 02:25:00;;;;;;;5.80;5.30;;;;;;;12.83;60.81;100362.41;5120253;28;20882;-66
2021/05/09 02:27:25;;;;;;;5.43;4.93;;;;;;;13.13;59.94;100363.09;5120653;28;20405;-66
2021/05/09 02:29:51;;;;;;;5.90;5.50;;;;;;;13.07;60.71;100361.38;5120802;28;20178;-66
2021/05/09 02:32:16;;;;;;;7.77;5.60;;;;;;;12.91;60.72;100362.38;5119852;28;20183;-65
2021/05/09 02:34:41;;;;;;;5.83;5.30;;;;;;;13.13;60.45;100363.09;5120642;28;20464;-67
2021/05/09 02:37:07;;;;;;;6.07;5.57;;;;;;;13.35;59.63;100350.69;5119532;28;20243;-66
2021/05/09 02:39:32;;;;;;;6.67;6.07;;;;;;;13.37;59.42;100350.69;5120368;28;20553;-66
2021/05/09 02:41:58;;;;;;;6.60;6.00;;;;;;;13.27;59.91;100344.66;5120225;28;20156;-65
2021/05/09 02:44:23;;;;;;;5.93;5.33;;;;;;;12.75;61.54;100353.72;5119999;28;20250;-65
2021/05/09 02:46:49;;;;;;;6.50;6.00;;;;;;;12.92;61.15;100346.66;5119944;28;20193;-65
2021/05/09 02:49:15;;;;;;;5.93;5.43;;;;;;;13.25;59.95;100343.81;5120573;28;20167;-65
2021/05/09 02:51:40;;;;;;;6.53;4.93;;;;;;;12.91;60.96;100336.19;5119723;28;20263;-65
2021/05/09 02:54:06;;;;;;;5.40;5.00;;;;;;;12.93;61.06;100344.88;5119626;28;20428;-66
2021/05/09 02:56:31;;;;;;;5.50;5.10;;;;;;;13.16;60.26;100342.09;5120165;28;20209;-65
2021/05/09 02:58:56;;;;;;;5.87;5.37;;;;;;;13.09;60.92;100351.75;5119710;28;20179;-66
2021/05/09 03:01:22;;;;;;;5.90;5.40;;;;;;;12.88;61.57;100351.91;5119505;28;20171;-65
2021/05/09 03:03:47;;;;;;;6.03;5.13;;;;;;;12.82;62.12;100349.34;5119969;28;20191;-65
2021/05/09 03:06:12;;;;;;;6.10;5.50;;;;;;;12.82;62.26;100351.94;5119798;28;20179;-66
2021/05/09 03:08:38;;;;;;;6.53;5.90;;;;;;;12.82;62.04;100349.34;5119859;28;20171;-66
2021/05/09 03:11:03;;;;;;;5.00;4.60;;;;;;;12.94;61.50;100349.25;5120023;28;20414;-66
2021/05/09 03:13:30;;;;;;;5.63;5.13;;;;;;;12.95;61.22;100353.63;5119378;28;20256;-66
2021/05/09 03:15:56;;;;;;;6.77;5.37;;;;;;;13.00;61.15;100362.28;5119488;27;20602;-66
2021/05/09 03:18:21;;;;;;;5.37;4.97;;;;;;;12.92;61.51;100366.69;5119752;28;20417;-65
2021/05/09 03:20:47;;;;;;;5.47;5.00;;;;;;;12.87;61.53;100364.13;5119205;28;20409;-65
2021/05/09 03:23:12;;;;;;;5.90;5.40;;;;;;;13.19;60.42;100360.44;5119145;28;20440;-65
2021/05/09 03:25:37;;;;;;;5.80;5.30;;;;;;;13.25;60.17;100357.75;5119078;28;20215;-65
2021/05/09 03:28:03;;;;;;;5.60;5.10;;;;;;;13.37;60.07;100363.78;5119287;28;20557;-65
2021/05/09 03:30:28;;;;;;;7.07;5.33;;;;;;;13.32;59.98;100358.56;5119318;28;20256;-66
2021/05/09 03:32:54;;;;;;;6.03;5.53;;;;;;;12.90;61.03;100358.00;5118943;28;20199;-65
2021/05/09 03:35:20;;;;;;;5.67;5.20;;;;;;;13.21;59.43;100352.56;5119000;28;20315;-65
2021/05/09 03:37:45;;;;;;;5.40;4.90;;;;;;;13.57;59.10;100356.66;5119530;28;20163;-66
2021/05/09 03:40:11;;;;;;;5.60;5.10;;;;;;;13.14;60.58;100359.59;5118968;28;20395;-64
2021/05/09 03:42:37;;;;;;;6.13;5.33;;;;;;;13.62;58.87;100351.38;5118742;28;20164;-66
2021/05/09 03:45:03;;;;;;;5.83;5.23;;;;;;;13.44;59.23;100352.41;5119354;28;20543;-66
2021/05/09 03:47:28;;;;;;;5.30;4.80;;;;;;;13.37;58.75;100354.22;5119080;28;20281;-67
2021/05/09 03:49:55;;;;;;;5.80;5.20;;;;;;;13.20;59.78;100356.06;5118759;28;20391;-65
2021/05/09 03:52:20;;;;;;;6.07;5.53;;;;;;;13.09;60.40;100354.38;5119659;28;20258;-66
2021/05/09 03:54:46;;;;;;;5.60;5.10;;;;;;;13.41;59.33;100361.16;5119184;28;20762;-65
2021/05/09 03:57:11;;;;;;;6.77;5.30;;;;;;;13.70;58.73;100351.31;5101479;28;20262;-65
2021/05/09 03:59:36;;;;;;;5.43;4.93;;;;;;;13.95;57.76;100354.53;5119147;28;20247;-65
2021/05/09 04:02:02;;;;;;;5.77;5.10;;;;;;;14.22;57.29;100353.38;5118525;28;20540;-66
2021/05/09 04:04:27;;;;;;;6.37;4.90;;;;;;;14.18;57.22;100353.41;5118743;28;20167;-65
2021/05/09 04:06:53;;;;;;;6.83;5.07;;;;;;;13.85;58.45;100353.75;5119143;28;20167;-66
2021/05/09 04:09:18;;;;;;;5.63;5.13;;;;;;;13.79;59.01;100357.31;5118547;28;20163;-65
2021/05/09 04:11:43;;;;;;;5.73;5.13;;;;;;;13.74;58.62;100364.34;5118796;28;20448;-66
2021/05/09 04:14:08;;;;;;;5.40;4.90;;;;;;;13.85;58.48;100360.75;5118798;28;20202;-66
2021/05/09 04:16:34;;;;;;;5.60;5.10;;;;;;;13.94;58.00;100355.44;5118462;28;20175;-66
2021/05/09 04:18:59;;;;;;;5.03;4.67;;;;;;;14.12;57.24;100355.22;5118769;28;20538;-67
2021/05/09 04:21:24;;;;;;;5.83;5.33;;;;;;;13.98;57.49;100350.13;5118807;28;20171;-67
2021/05/09 04:23:49;;;;;;;5.63;5.13;;;;;;;13.61;58.65;100349.63;5118325;28;20167;-66
2021/05/09 04:26:15;;;;;;;5.80;5.30;;;;;;;13.81;57.95;100349.44;5118255;28;20246;-66
2021/05/09 04:28:40;;;;;;;5.00;4.63;;;;;;;13.95;57.81;100344.03;5118880;28;20536;-65
2021/05/09 04:31:05;;;;;;;7.37;5.40;;;;;;;14.18;56.82;100356.03;5118167;28;20188;-66
2021/05/09 04:33:31;;;;;;;5.10;4.70;;;;;;;14.63;55.34;100349.38;5118323;28;20196;-65
2021/05/09 04:35:56;;;;;;;5.30;4.90;;;;;;;14.31;56.66;100355.00;5118711;27;20172;-65
2021/05/09 04:38:22;;;;;;;5.30;4.90;;;;;;;14.58;55.97;100348.53;5118274;28;20184;-66
2021/05/09 04:40:48;;;;;;;4.93;4.43;;;;;;;14.55;55.72;100347.75;5118421;28;20164;-66
2021/05/09 04:43:17;;;;;;;5.53;4.87;;;;;;;14.59;55.26;100349.44;5118796;28;20214;-65
2021/05/09 04:46:01;;;;;;;5.10;4.60;;;;;;;15.05;53.93;100340.94;5118168;28;20193;-66
2021/05/09 04:48:26;;;;;;;5.10;4.70;;;;;;;15.06;54.40;100345.28;5118236;28;20416;-65
2021/05/09 04:50:52;;;;;;;5.00;4.60;;;;;;;15.72;51.86;100342.44;5118066;28;20479;-66
2021/05/09 04:53:31;;;;;;;4.73;4.33;;;;;;;15.32;52.97;100344.00;5118124;28;20236;-65
2021/05/09 04:55:58;;;;;;;6.40;4.80;;;;;;;15.19;53.31;100335.44;5117514;28;20167;-65
2021/05/09 04:58:24;;;;;;;5.40;4.90;;;;;;;15.82;51.52;100326.53;5118201;28;20517;-66
2021/05/09 05:00:51;;;;;;;5.00;4.60;;;;;;;17.67;46.27;100325.91;5119058;28;20465;-66
2021/05/09 05:03:17;;;;;;;4.50;4.20;;;;;;;17.94;45.66;100320.84;5122024;27;20383;-66
2021/05/09 05:05:42;;;;;;;4.80;4.40;;;;;;;17.80;45.03;100322.06;5122042;28;20406;-66
2021/05/09 05:08:07;;;;;;;4.57;4.10;;;;;;;18.54;43.85;100318.25;5122352;28;20427;-67
2021/05/09 05:10:32;;;;;;;5.50;4.27;;;;;;;19.85;40.49;100308.75;5121661;28;20168;-66
2021/05/09 05:12:58;;;;;;;4.63;4.23;;;;;;;19.84;40.69;100315.81;5121796;28;20203;-65
2021/05/09 05:15:23;;;;;;;4.47;4.07;;;;;;;20.85;38.15;100304.97;5122445;28;20478;-66
2021/05/09 05:17:48;;;;;;;4.50;4.03;;;;;;;21.17;37.26;100305.44;5121724;28;20197;-66
2021/05/09 05:20:15;;;;;;;3.97;3.67;;;;;;;21.34;36.70;100311.84;5121662;28;20262;-66
2021/05/09 05:22:40;;;;;;;4.40;4.00;;;;;;;21.69;35.84;100304.22;5121983;28;20164;-65
2021/05/09 05:25:06;;;;;;;4.10;3.70;;;;;;;22.88;33.64;100304.09;5121435;28;20502;-66
2021/05/09 05:27:31;;;;;;;4.53;4.10;;;;;;;22.32;34.42;100311.13;5121566;28;20259;-66
2021/05/09 05:29:56;;;;;;;4.00;3.60;;;;;;;23.51;32.28;100305.41;5122153;28;20427;-66
2021/05/09 05:32:22;;;;;;;4.10;3.70;;;;;;;21.95;34.68;100313.66;5121210;28;20187;-66
2021/05/09 05:34:47;;;;;;;4.07;3.77;;;;;;;23.31;32.76;100309.09;5121408;28;20529;-66
2021/05/09 05:37:12;;;;;;;4.03;3.70;;;;;;;23.50;32.24;100303.69;5121987;28;20530;-66
2021/05/09 05:39:38;;;;;;;4.10;3.70;;;;;;;24.30;30.96;100290.63;5121416;28;20262;-67
2021/05/09 05:42:03;;;;;;;4.00;3.60;;;;;;;23.86;31.29;100306.22;5121170;28;20171;-66
2021/05/09 05:44:28;;;;;;;4.30;3.90;;;;;;;23.68;31.62;100294.75;5121719;28;20589;-66
2021/05/09 05:46:54;;;;;;;4.40;4.00;;;;;;;24.15;30.82;100300.31;5121309;28;20183;-66
2021/05/09 05:49:20;;;;;;;4.23;3.73;;;;;;;25.41;29.30;100300.38;5121287;28;20494;-67
2021/05/09 05:51:45;;;;;;;4.30;3.90;;;;;;;24.94;29.72;100299.50;5121498;28;20406;-67
2021/05/09 05:54:11;;;;;;;4.20;3.80;;;;;;;25.95;28.35;100298.91;5120994;28;20467;-66
2021/05/09 05:56:36;;;;;;;3.50;3.20;;;;;;;25.89;28.20;100305.50;5121063;28;20195;-66
2021/05/09 05:59:01;;;;;;;5.23;3.80;;;;;;;25.30;28.98;100306.31;5121474;28;20584;-65
2021/05/09 06:01:27;;;;;;;4.60;3.97;;;;;;;25.65;28.45;100303.38;5120735;28;20254;-65
2021/05/09 06:03:52;;;;;;;4.00;3.70;;;;;;;25.96;28.12;100308.66;5120730;28;20168;-65
2021/05/09 06:06:17;;;;;;;4.63;4.20;;;;;;;25.88;28.52;100303.78;5121175;28;20400;-66
2021/05/09 06:08:44;;;;;;;4.00;3.70;;;;;;;25.90;28.34;100296.53;5120860;28;20421;-65
2021/05/09 06:11:10;;;;;;;3.77;3.47;;;;;;;26.52;26.92;100300.69;5120488;28;20167;-66
2021/05/09 06:13:35;;;;;;;4.27;3.80;;;;;;;26.30;27.57;100298.56;5120079;28;20448;-66
2021/05/09 06:16:00;;;;;;;3.90;3.60;;;;;;;25.88;28.26;100298.44;5120505;28;20205;-67
2021/05/09 06:18:26;;;;;;;4.50;4.20;;;;;;;27.05;26.60;100290.16;5120445;28;20541;-66
2021/05/09 06:20:51;;;;;;;4.40;3.60;;;;;;;26.72;26.61;100297.66;5120705;28;20167;-66
2021/05/09 06:23:22;;;;;;;4.13;3.83;;;;;;;26.36;27.52;100292.84;5119610;28;20234;-66
2021/05/09 06:25:48;;;;;;;3.80;3.50;;;;;;;26.62;26.69;100299.16;5120329;28;20461;-66
2021/05/09 06:28:14;;;;;;;3.97;3.57;;;;;;;27.14;26.82;100291.34;5120810;28;20416;-66
2021/05/09 06:30:39;;;;;;;3.97;3.57;;;;;;;27.45;26.31;100292.84;5120089;28;20276;-66
2021/05/09 06:33:05;;;;;;;4.00;3.57;;;;;;;27.80;25.54;100294.91;5120069;28;20476;-66
2021/05/09 06:35:36;;;;;;;3.90;3.60;;;;;;;25.96;28.48;100305.97;5120663;28;20284;-66
2021/05/09 06:38:01;;;;;;;4.10;3.70;;;;;;;24.83;29.29;100305.47;5120217;28;20168;-67
2021/05/09 06:40:27;;;;;;;4.10;3.70;;;;;;;26.51;27.29;100299.84;5120060;27;20417;-67
2021/05/09 06:42:59;;;;;;;3.70;3.40;;;;;;;28.00;25.32;100292.66;5120634;28;20170;-66
2021/05/09 06:45:27;;;;;;;3.53;3.27;;;;;;;28.71;24.80;100291.16;5120032;28;20175;-67
2021/05/09 06:47:52;;;;;;;4.20;3.57;;;;;;;28.16;25.34;100292.44;5119971;28;20459;-67
2021/05/09 06:50:18;;;;;;;3.50;3.20;;;;;;;26.79;26.89;100300.78;5119927;27;20413;-67
2021/05/09 06:52:43;;;;;;;3.67;3.33;;;;;;;27.87;25.83;100290.84;5119687;28;20266;-66
2021/05/09 06:55:10;;;;;;;3.60;3.03;;;;;;;29.01;24.63;100291.63;5120187;28;20181;-65
2021/05/09 06:57:36;;;;;;;3.60;3.30;;;;;;;27.92;26.07;100289.66;5119754;28;20175;-68
2021/05/09 07:00:03;;;;;;;4.47;3.40;;;;;;;28.71;25.21;100287.59;5119728;28;20682;-66
2021/05/09 07:02:29;;;;;;;3.60;3.30;;;;;;;29.16;24.51;100297.66;5118781;28;20163;-66
2021/05/09 07:04:54;;;;;;;4.03;3.30;;;;;;;28.65;25.09;100283.53;5119291;28;20424;-67
2021/05/09 07:07:19;;;;;;;3.47;3.17;;;;;;;28.76;25.28;100290.78;5119453;28;20489;-67
2021/05/09 07:09:44;;;;;;;3.93;3.30;;;;;;;27.78;26.91;100288.81;5119953;28;20197;-68
2021/05/09 07:12:10;;;;;;;3.30;3.00;;;;;;;29.82;23.84;100289.06;5119169;28;20176;-67
2021/05/09 07:14:35;;;;;;;3.50;3.20;;;;;;;30.12;23.80;100279.56;5119027;28;20203;-68
2021/05/09 07:17:01;;;;;;;4.47;3.30;;;;;;;28.40;25.75;100287.13;5119891;28;20156;-69
2021/05/09 07:19:27;;;;;;;3.07;2.77;;;;;;;27.42;27.11;100300.25;5119201;28;20178;-68
2021/05/09 07:21:56;;;;;;;3.33;3.13;;;;;;;28.06;26.53;100294.91;5119125;28;20410;-68
2021/05/09 07:24:22;;;;;;;3.60;3.30;;;;;;;28.47;25.68;100291.09;5119036;28;20480;-67
2021/05/09 07:26:47;;;;;;;3.63;3.33;;;;;;;29.19;25.26;100282.19;5119335;28;20425;-68
2021/05/09 07:29:12;;;;;;;4.80;3.33;;;;;;;29.22;24.72;100278.41;5118929;28;20597;-67
2021/05/09 07:31:40;;;;;;;3.67;3.23;;;;;;;28.05;26.73;100291.38;5118752;28;20195;-68
2021/05/09 07:34:10;;;;;;;3.70;3.30;;;;;;;28.82;25.46;100284.97;5118786;28;20607;-68
2021/05/09 07:36:36;;;;;;;3.03;2.83;;;;;;;28.92;25.10;100278.94;5118860;28;20482;-69
2021/05/09 07:39:03;;;;;;;4.30;3.70;;;;;;;29.85;24.58;100281.66;5117879;28;20470;-68
2021/05/09 07:41:28;;;;;;;7.90;5.40;;;;;;;29.41;24.79;100275.22;5118498;28;20432;-68
2021/05/09 07:43:53;;;;;;;4.83;3.00;;;;;;;29.96;24.16;100288.88;5119111;28;20401;-69
2021/05/09 07:46:18;;;;;;;4.50;3.30;;;;;;;29.50;24.60;100287.94;5118524;28;20175;-65
2021/05/09 07:48:44;;;;;;;7.40;6.30;;;;;;;29.68;24.79;100282.09;5118652;28;20585;-68
2021/05/09 07:51:09;;;;;;;4.50;3.60;;;;;;;30.56;23.02;100285.91;5118778;28;20529;-67
2021/05/09 07:53:34;;;;;;;3.93;3.10;;;;;;;30.35;23.63;100292.03;5118358;28;20207;-66
2021/05/09 07:56:00;;;;;;;4.30;3.50;;;;;;;29.30;24.80;100288.63;5118394;28;20200;-66
2021/05/09 07:58:25;;;;;;;3.80;3.50;;;;;;;29.72;24.41;100288.94;5118747;28;20258;-66
2021/05/09 08:00:50;;;;;;;4.83;4.37;;;;;;;30.79;23.47;100288.53;5118036;28;20477;-66
2021/05/09 08:03:16;;;;;;;4.97;4.47;;;;;;;31.18;22.46;100297.81;5118027;28;20564;-67
2021/05/09 08:05:44;;;;;;;4.33;3.20;;;;;;;31.22;22.33;100287.66;5118671;28;20171;-67
2021/05/09 08:08:10;;;;;;;4.30;3.90;;;;;;;31.26;22.31;100290.91;5118323;28;20171;-68
2021/05/09 08:10:38;;;;;;;3.60;3.30;;;;;;;30.74;22.72;100297.84;5118186;28;20514;-67
2021/05/09 08:13:05;;;;;;;3.40;3.10;;;;;;;30.46;22.91;100290.31;5118621;28;20213;-66
2021/05/09 08:15:31;;;;;;;3.60;3.17;;;;;;;30.06;23.38;100287.13;5118321;28;20413;-69
2021/05/09 08:17:56;;;;;;;4.30;3.50;;;;;;;29.35;24.71;100298.03;5118574;28;20409;-68
2021/05/09 08:20:22;;;;;;;3.50;3.30;;;;;;;28.70;25.18;100296.63;5118946;28;20174;-69
2021/05/09 08:22:47;;;;;;;3.80;3.50;;;;;;;30.56;23.61;100292.13;5118127;28;20465;-69
2021/05/09 08:25:14;;;;;;;6.57;3.80;;;;;;;29.70;24.48;100282.81;5117516;28;20301;-69
2021/05/09 08:27:40;;;;;;;4.90;3.37;;;;;;;30.01;23.97;100283.13;5118710;28;20167;-69
2021/05/09 08:30:06;;;;;;;3.50;3.20;;;;;;;30.99;23.23;100284.19;5118245;28;20432;-69
2021/05/09 08:32:31;;;;;;;3.60;3.30;;;;;;;30.90;22.82;100288.47;5118043;28;20193;-67
2021/05/09 08:34:58;;;;;;;3.40;3.10;;;;;;;29.83;24.02;100288.94;5118731;28;20625;-68
2021/05/09 08:37:24;;;;;;;3.40;3.10;;;;;;;29.25;24.84;100280.91;5122193;28;20439;-68
2021/05/09 08:39:49;;;;;;;3.73;3.10;;;;;;;29.90;24.07;100267.84;5122118;28;20447;-68
2021/05/09 08:42:15;;;;;;;4.20;3.60;;;;;;;29.90;24.41;100281.28;5122570;28;20176;-68
2021/05/09 08:44:44;;;;;;;4.80;3.47;;;;;;;31.06;22.88;100264.69;5122030;28;20249;-69
2021/05/09 08:47:10;;;;;;;3.00;2.80;;;;;;;29.84;24.68;100271.84;5121935;28;20466;-69
2021/05/09 08:49:40;;;;;;;3.30;3.00;;;;;;;27.81;26.90;100279.69;5121773;28;20405;-68
2021/05/09 08:52:06;;;;;;;3.30;3.00;;;;;;;30.70;23.20;100269.47;5121905;28;20210;-68
2021/05/09 08:54:31;;;;;;;4.57;3.63;;;;;;;31.20;22.59;100271.63;5121839;28;20413;-69
2021/05/09 08:56:57;;;;;;;4.90;3.37;;;;;;;27.90;26.78;100271.88;5122393;27;20413;-69
2021/05/09 08:59:22;;;;;;;3.47;3.17;;;;;;;28.76;25.15;100272.00;5121988;28;20224;-69
2021/05/09 09:01:48;;;;;;;4.33;3.30;;;;;;;28.82;25.84;100266.19;5121711;28;20419;-68
2021/05/09 09:04:14;;;;;;;3.90;3.10;;;;;;;29.23;24.61;100255.97;5121362;28;20198;-68
2021/05/09 09:06:43;;;;;;;3.30;3.00;;;;;;;29.45;24.86;100248.97;5121897;28;20178;-68
2021/05/09 09:09:19;;;;;;;4.63;4.23;;;;;;;29.98;24.51;100251.97;5121788;28;20163;-67
2021/05/09 09:11:50;;;;;;;3.30;3.00;;;;;;;30.30;23.45;100245.81;5120736;28;20677;-68
2021/05/09 09:14:15;;;;;;;3.30;2.87;;;;;;;29.67;24.51;100258.88;5121712;28;20413;-68
2021/05/09 09:16:40;;;;;;;3.40;3.10;;;;;;;28.93;25.12;100238.56;5122225;28;20810;-68
2021/05/09 09:19:11;;;;;;;3.50;3.20;;;;;;;29.80;24.98;100242.66;5121908;28;20187;-67
2021/05/09 09:21:37;;;;;;;3.10;2.90;;;;;;;30.18;23.11;100236.06;5121388;28;20186;-68
2021/05/09 09:24:06;;;;;;;3.37;3.07;;;;;;;31.28;22.58;100240.50;5120784;28;20449;-68
2021/05/09 09:26:39;;;;;;;3.50;3.13;;;;;;;31.17;22.12;100247.63;5121531;28;20175;-68
2021/05/09 09:29:24;;;;;;;3.40;3.10;;;;;;;30.99;22.80;100241.13;5121523;28;20425;-67
2021/05/09 09:31:57;;;;;;;3.37;3.07;;;;;;;29.20;24.85;100238.28;5121183;28;20433;-66
2021/05/09 09:34:42;;;;;;;4.70;3.20;;;;;;;29.97;23.85;100223.41;5121410;28;20437;-68
2021/05/09 09:37:08;;;;;;;3.60;3.30;;;;;;;30.93;22.77;100223.63;5121315;27;20520;-67
2021/05/09 09:39:48;;;;;;;6.00;3.30;;;;;;;29.92;23.99;100219.34;5121070;27;20747;-67
2021/05/09 09:42:15;;;;;;;3.67;3.30;;;;;;;29.26;24.94;100222.72;5121054;28;20417;-67
2021/05/09 09:44:40;;;;;;;3.60;3.30;;;;;;;29.42;24.41;100214.28;5121062;28;20457;-66
2021/05/09 09:47:06;;;;;;;4.10;3.47;;;;;;;30.21;24.04;100214.31;5120695;28;20727;-67
2021/05/09 09:49:35;;;;;;;5.17;3.60;;;;;;;31.39;21.85;100194.63;5120910;28;20552;-66
2021/05/09 09:52:08;;;;;;;3.93;3.27;;;;;;;31.70;21.52;100198.22;5121230;28;20167;-66
2021/05/09 09:54:42;;;;;;;3.40;3.10;;;;;;;31.88;21.64;100187.63;5121178;28;20417;-65
2021/05/09 09:57:10;;;;;;;3.97;3.50;;;;;;;32.13;20.84;100192.66;5120702;28;20857;-65
2021/05/09 09:59:35;;;;;;;3.67;3.10;;;;;;;31.56;20.94;100185.06;5120799;28;20444;-65
2021/05/09 10:02:05;;;;;;;3.57;3.27;;;;;;;31.01;22.13;100187.97;5120640;28;20787;-68
2021/05/09 10:04:31;;;;;;;6.97;4.10;;;;;;;30.35;22.98;100180.91;5120992;27;20492;-67
2021/05/09 10:06:56;;;;;;;3.60;3.10;;;;;;;30.75;22.05;100180.28;5120449;27;20418;-67
2021/05/09 10:09:22;;;;;;;3.63;3.33;;;;;;;31.16;21.79;100178.63;5120772;28;20171;-67
2021/05/09 10:11:47;;;;;;;3.30;3.00;;;;;;;31.89;21.18;100175.88;5120406;28;20171;-67
2021/05/09 10:14:13;;;;;;;3.40;3.10;;;;;;;31.78;21.70;100169.72;5120393;28;20229;-66
2021/05/09 10:16:42;;;;;;;3.27;2.97;;;;;;;29.55;24.53;100178.31;5120604;27;20236;-66
2021/05/09 10:19:14;;;;;;;5.00;3.17;;;;;;;31.07;22.64;100160.59;5120827;28;20254;-67
2021/05/09 10:21:43;;;;;;;3.67;3.20;;;;;;;29.67;23.38;100163.03;5119579;28;20706;-67
2021/05/09 10:24:24;;;;;;;3.63;2.90;;;;;;;29.56;23.96;100179.16;5120145;28;20453;-67
2021/05/09 10:26:59;;;;;;;3.87;3.10;;;;;;;30.51;22.60;100159.00;5120135;28;20465;-66
2021/05/09 10:29:48;;;;;;;6.93;3.60;;;;;;;29.74;23.96;100168.75;5120255;28;20825;-66
2021/05/09 10:32:19;;;;;;;4.27;3.03;;;;;;;29.67;24.51;100148.75;5115985;28;20453;-67
2021/05/09 10:34:51;;;;;;;3.60;3.30;;;;;;;30.65;21.93;100147.94;5119972;28;20701;-67
2021/05/09 10:37:38;;;;;;;3.30;3.00;;;;;;;29.95;22.63;100155.47;5119925;28;20414;-65
2021/05/09 10:40:23;;;;;;;3.23;2.93;;;;;;;29.57;23.52;100140.59;5119950;28;20406;-65
2021/05/09 10:43:09;;;;;;;2.97;2.77;;;;;;;29.69;23.22;100142.28;5119752;28;20413;-66
2021/05/09 10:45:34;;;;;;;4.33;3.13;;;;;;;30.44;21.98;100134.41;5119770;28;20837;-65
2021/05/09 10:48:15;;;;;;;3.30;2.97;;;;;;;30.86;22.01;100142.53;5119830;28;20437;-65
2021/05/09 10:50:42;;;;;;;3.90;3.33;;;;;;;29.89;23.61;100146.06;5119649;28;20539;-65
2021/05/09 10:53:07;;;;;;;3.40;3.10;;;;;;;29.34;24.33;100155.84;5119422;28;20511;-66
2021/05/09 10:55:35;;;;;;;3.90;3.10;;;;;;;30.00;23.29;100147.00;5118843;28;20508;-66
2021/05/09 10:58:02;;;;;;;3.30;2.90;;;;;;;30.03;22.96;100142.25;5119298;28;20196;-66
2021/05/09 11:00:27;;;;;;;3.50;3.20;;;;;;;29.31;23.84;100148.00;5119294;28;20519;-65
2021/05/09 11:02:53;;;;;;;3.00;2.70;;;;;;;29.49;23.23;100143.88;5119027;28;20417;-65
2021/05/09 11:05:20;;;;;;;3.60;3.30;;;;;;;28.90;23.98;100144.88;5119290;28;20179;-65
2021/05/09 11:07:46;;;;;;;3.10;2.80;;;;;;;29.45;23.50;100136.19;5119308;28;20543;-65
2021/05/09 11:10:43;;;;;;;3.27;2.90;;;;;;;29.09;23.90;100130.88;5118995;28;20413;-65
2021/05/09 11:13:09;;;;;;;3.30;2.90;;;;;;;29.37;24.39;100126.91;5087132;28;20187;-65
2021/05/09 11:15:35;;;;;;;3.40;3.00;;;;;;;29.61;23.90;100131.31;5098929;28;20795;-65
2021/05/09 11:18:11;;;;;;;3.33;2.80;;;;;;;29.57;23.87;100135.22;5098930;28;20438;-65
2021/05/09 11:20:37;;;;;;;3.33;2.97;;;;;;;28.87;24.54;100137.91;5098650;28;20176;-65
2021/05/09 11:23:02;;;;;;;3.23;2.93;;;;;;;29.03;24.22;100144.78;5097883;28;20468;-65